sensor_id;sensor_type;location;lat;lon;timestamp;pressure;altitude;pressure_sealevel;temperature;humidity
1616;BME280;801;47.982;7.810;2023-05-15T00:00:06;98320.47;;;13.74;100.00
1616;BME280;801;47.982;7.810;2023-05-15T00:02:34;98329.09;;;13.76;100.00
1616;BME280;801;47.982;7.810;2023-05-15T00:05:02;98325.19;;;13.63;100.00
1616;BME280;801;47.982;7.810;2023-05-15T00:07:29;98322.38;;;13.74;100.00
1616;BME280;801;47.982;7.810;2023-05-15T00:09:55;98311.06;;;13.96;100.00
1616;BME280;801;47.982;7.810;2023-05-15T00:12:24;98311.84;;;13.96;100.00
1616;BME280;801;47.982;7.810;2023-05-15T00:14:50;98308.28;;;14.01;100.00
1616;BME280;801;47.982;7.810;2023-05-15T00:17:17;98304.13;;;14.08;100.00
1616;BME280;801;47.982;7.810;2023-05-15T00:19:44;98318.50;;;14.04;100.00
1616;BME280;801;47.982;7.810;2023-05-15T00:22:10;98315.19;;;13.88;100.00
1616;BME280;801;47.982;7.810;2023-05-15T00:24:37;98330.66;;;13.82;100.00
1616;BME280;801;47.982;7.810;2023-05-15T00:27:04;98333.53;;;13.67;100.00
1616;BME280;801;47.982;7.810;2023-05-15T00:29:32;98326.56;;;13.61;100.00
1616;BME280;801;47.982;7.810;2023-05-15T00:31:58;98323.25;;;13.69;100.00
1616;BME280;801;47.982;7.810;2023-05-15T00:34:25;98315.75;;;13.61;100.00
1616;BME280;801;47.982;7.810;2023-05-15T00:36:51;98317.06;;;13.39;100.00
1616;BME280;801;47.982;7.810;2023-05-15T00:39:17;98318.56;;;13.50;100.00
1616;BME280;801;47.982;7.810;2023-05-15T00:41:45;98317.03;;;13.44;100.00
1616;BME280;801;47.982;7.810;2023-05-15T00:44:13;98313.16;;;13.50;100.00
1616;BME280;801;47.982;7.810;2023-05-15T00:46:42;98324.97;;;13.60;100.00
1616;BME280;801;47.982;7.810;2023-05-15T00:49:10;98316.28;;;13.63;100.00
1616;BME280;801;47.982;7.810;2023-05-15T00:51:39;98320.03;;;13.67;100.00
1616;BME280;801;47.982;7.810;2023-05-15T00:54:06;98319.25;;;13.61;100.00
1616;BME280;801;47.982;7.810;2023-05-15T00:56:33;98320.25;;;13.70;100.00
1616;BME280;801;47.982;7.810;2023-05-15T00:59:01;98323.88;;;13.61;100.00
1616;BME280;801;47.982;7.810;2023-05-15T01:01:29;98326.66;;;13.50;100.00
1616;BME280;801;47.982;7.810;2023-05-15T01:04:00;98317.56;;;13.41;100.00
1616;BME280;801;47.982;7.810;2023-05-15T01:06:27;98322.88;;;13.22;100.00
1616;BME280;801;47.982;7.810;2023-05-15T01:08:55;98310.66;;;13.35;100.00
1616;BME280;801;47.982;7.810;2023-05-15T01:11:24;98319.75;;;13.39;100.00
1616;BME280;801;47.982;7.810;2023-05-15T01:13:52;98319.72;;;13.44;100.00
1616;BME280;801;47.982;7.810;2023-05-15T01:16:20;98315.88;;;13.50;100.00
1616;BME280;801;47.982;7.810;2023-05-15T01:18:47;98305.66;;;13.47;100.00
1616;BME280;801;47.982;7.810;2023-05-15T01:21:43;98307.94;;;13.35;100.00
1616;BME280;801;47.982;7.810;2023-05-15T01:24:32;98318.97;;;13.39;100.00
1616;BME280;801;47.982;7.810;2023-05-15T01:27:21;98309.91;;;13.24;100.00
1616;BME280;801;47.982;7.810;2023-05-15T01:29:58;98320.50;;;13.16;100.00
1616;BME280;801;47.982;7.810;2023-05-15T01:32:34;98307.97;;;13.30;100.00
1616;BME280;801;47.982;7.810;2023-05-15T01:35:09;98316.03;;;13.35;100.00
1616;BME280;801;47.982;7.810;2023-05-15T01:37:41;98316.31;;;13.34;100.00
1616;BME280;801;47.982;7.810;2023-05-15T01:40:11;98314.94;;;13.36;100.00
1616;BME280;801;47.982;7.810;2023-05-15T01:42:45;98315.53;;;13.33;100.00
1616;BME280;801;47.982;7.810;2023-05-15T01:45:16;98314.59;;;13.43;100.00
1616;BME280;801;47.982;7.810;2023-05-15T01:47:43;98317.56;;;13.41;100.00
1616;BME280;801;47.982;7.810;2023-05-15T01:50:14;98314.34;;;13.39;100.00
1616;BME280;801;47.982;7.810;2023-05-15T01:52:43;98312.19;;;13.41;100.00
1616;BME280;801;47.982;7.810;2023-05-15T01:55:13;98311.19;;;13.32;100.00
1616;BME280;801;47.982;7.810;2023-05-15T01:57:42;98311.19;;;13.32;100.00
1616;BME280;801;47.982;7.810;2023-05-15T02:00:12;98314.69;;;13.33;100.00
1616;BME280;801;47.982;7.810;2023-05-15T02:02:40;98310.06;;;13.38;100.00
1616;BME280;801;47.982;7.810;2023-05-15T02:05:07;98307.81;;;13.45;100.00
1616;BME280;801;47.982;7.810;2023-05-15T02:07:36;98299.31;;;13.33;100.00
1616;BME280;801;47.982;7.810;2023-05-15T02:10:02;98306.31;;;13.34;100.00
1616;BME280;801;47.982;7.810;2023-05-15T02:12:30;98298.53;;;13.27;100.00
1616;BME280;801;47.982;7.810;2023-05-15T02:14:58;98292.56;;;13.36;100.00
1616;BME280;801;47.982;7.810;2023-05-15T02:17:26;98295.81;;;13.27;100.00
1616;BME280;801;47.982;7.810;2023-05-15T02:19:53;98292.31;;;13.32;100.00
1616;BME280;801;47.982;7.810;2023-05-15T02:22:20;98294.22;;;13.26;100.00
1616;BME280;801;47.982;7.810;2023-05-15T02:24:46;98290.22;;;13.24;100.00
1616;BME280;801;47.982;7.810;2023-05-15T02:27:17;98292.31;;;13.32;100.00
1616;BME280;801;47.982;7.810;2023-05-15T02:29:51;98290.25;;;13.19;100.00
1616;BME280;801;47.982;7.810;2023-05-15T02:32:29;98291.88;;;13.20;100.00
1616;BME280;801;47.982;7.810;2023-05-15T02:35:02;98287.00;;;13.22;100.00
1616;BME280;801;47.982;7.810;2023-05-15T02:37:34;98290.22;;;13.24;100.00
1616;BME280;801;47.982;7.810;2023-05-15T02:40:05;98295.09;;;13.22;100.00
1616;BME280;801;47.982;7.810;2023-05-15T02:42:34;98288.59;;;13.23;100.00
1616;BME280;801;47.982;7.810;2023-05-15T02:45:02;98291.81;;;13.25;100.00
1616;BME280;801;47.982;7.810;2023-05-15T02:47:32;98284.38;;;13.12;100.00
1616;BME280;801;47.982;7.810;2023-05-15T02:49:59;98290.06;;;13.10;100.00
1616;BME280;801;47.982;7.810;2023-05-15T02:52:26;98288.66;;;13.13;100.00
1616;BME280;801;47.982;7.810;2023-05-15T02:54:53;98294.19;;;13.02;100.00
1616;BME280;801;47.982;7.810;2023-05-15T02:57:19;98286.78;;;12.84;100.00
1616;BME280;801;47.982;7.810;2023-05-15T02:59:46;98285.63;;;12.90;100.00
1616;BME280;801;47.982;7.810;2023-05-15T03:02:12;98287.78;;;12.93;100.00
1616;BME280;801;47.982;7.810;2023-05-15T03:04:40;98289.13;;;12.96;100.00
1616;BME280;801;47.982;7.810;2023-05-15T03:07:06;98279.13;;;12.96;100.00
1616;BME280;801;47.982;7.810;2023-05-15T03:09:33;98280.16;;;13.00;100.00
1616;BME280;801;47.982;7.810;2023-05-15T03:11:59;98277.94;;;13.07;100.00
1616;BME280;801;47.982;7.810;2023-05-15T03:14:26;98275.25;;;13.07;100.00
1616;BME280;801;47.982;7.810;2023-05-15T03:16:52;98279.50;;;13.14;100.00
1616;BME280;801;47.982;7.810;2023-05-15T03:19:19;98282.34;;;12.98;100.00
1616;BME280;801;47.982;7.810;2023-05-15T03:21:47;98274.31;;;12.93;100.00
1616;BME280;801;47.982;7.810;2023-05-15T03:24:13;98279.78;;;12.83;100.00
1616;BME280;801;47.982;7.810;2023-05-15T03:26:40;98272.84;;;12.72;100.00
1616;BME280;801;47.982;7.810;2023-05-15T03:29:07;98273.91;;;12.36;100.00
1616;BME280;801;47.982;7.810;2023-05-15T03:31:33;98269.78;;;12.49;100.00
1616;BME280;801;47.982;7.810;2023-05-15T03:34:00;98275.66;;;12.56;100.00
1616;BME280;801;47.982;7.810;2023-05-15T03:36:26;98276.81;;;12.45;100.00
1616;BME280;801;47.982;7.810;2023-05-15T03:38:54;98273.59;;;12.48;100.00
1616;BME280;801;47.982;7.810;2023-05-15T03:41:21;98275.50;;;12.42;100.00
1616;BME280;801;47.982;7.810;2023-05-15T03:43:47;98283.25;;;12.49;100.00
1616;BME280;801;47.982;7.810;2023-05-15T03:46:14;98278.34;;;12.56;100.00
1616;BME280;801;47.982;7.810;2023-05-15T03:48:40;98283.72;;;12.61;100.00
1616;BME280;801;47.982;7.810;2023-05-15T03:51:07;98277.34;;;12.47;100.00
1616;BME280;801;47.982;7.810;2023-05-15T03:53:33;98278.19;;;12.42;100.00
1616;BME280;801;47.982;7.810;2023-05-15T03:56:01;98274.22;;;12.35;100.00
1616;BME280;801;47.982;7.810;2023-05-15T03:58:28;98276.06;;;12.34;100.00
1616;BME280;801;47.982;7.810;2023-05-15T04:00:56;98275.84;;;12.25;100.00
1616;BME280;801;47.982;7.810;2023-05-15T04:03:22;98278.34;;;12.17;100.00
1616;BME280;801;47.982;7.810;2023-05-15T04:05:49;98278.63;;;12.15;100.00
1616;BME280;801;47.982;7.810;2023-05-15T04:08:16;98281.84;;;12.17;100.00
1616;BME280;801;47.982;7.810;2023-05-15T04:10:42;98294.53;;;12.17;100.00
1616;BME280;801;47.982;7.810;2023-05-15T04:13:10;98294.59;;;11.96;100.00
1616;BME280;801;47.982;7.810;2023-05-15T04:15:37;98292.16;;;12.00;100.00
1616;BME280;801;47.982;7.810;2023-05-15T04:18:04;98293.22;;;12.04;100.00
1616;BME280;801;47.982;7.810;2023-05-15T04:20:31;98294.03;;;12.04;100.00
1616;BME280;801;47.982;7.810;2023-05-15T04:22:58;98298.56;;;12.14;100.00
1616;BME280;801;47.982;7.810;2023-05-15T04:25:24;98296.91;;;12.18;100.00
1616;BME280;801;47.982;7.810;2023-05-15T04:27:52;98302.81;;;12.25;100.00
1616;BME280;801;47.982;7.810;2023-05-15T04:30:20;98299.03;;;12.27;100.00
1616;BME280;801;47.982;7.810;2023-05-15T04:32:48;98308.13;;;12.36;100.00
1616;BME280;801;47.982;7.810;2023-05-15T04:35:16;98312.72;;;12.35;100.00
1616;BME280;801;47.982;7.810;2023-05-15T04:37:43;98313.56;;;12.31;100.00
1616;BME280;801;47.982;7.810;2023-05-15T04:40:11;98315.47;;;12.25;100.00
1616;BME280;801;47.982;7.810;2023-05-15T04:42:39;98311.47;;;12.17;100.00
1616;BME280;801;47.982;7.810;2023-05-15T04:45:06;98304.44;;;12.27;100.00
1616;BME280;801;47.982;7.810;2023-05-15T04:47:34;98315.16;;;12.32;100.00
1616;BME280;801;47.982;7.810;2023-05-15T04:50:01;98305.19;;;12.32;100.00
1616;BME280;801;47.982;7.810;2023-05-15T04:52:28;98315.38;;;12.40;100.00
1616;BME280;801;47.982;7.810;2023-05-15T04:54:54;98311.00;;;12.50;100.00
1616;BME280;801;47.982;7.810;2023-05-15T04:57:21;98308.81;;;12.57;100.00
1616;BME280;801;47.982;7.810;2023-05-15T04:59:47;98310.44;;;12.58;100.00
1616;BME280;801;47.982;7.810;2023-05-15T05:02:14;98314.41;;;12.65;100.00
1616;BME280;801;47.982;7.810;2023-05-15T05:04:42;98315.47;;;12.70;100.00
1616;BME280;801;47.982;7.810;2023-05-15T05:07:10;98323.00;;;12.73;100.00
1616;BME280;801;47.982;7.810;2023-05-15T05:09:37;98316.25;;;12.75;100.00
1616;BME280;801;47.982;7.810;2023-05-15T05:12:04;98313.81;;;12.74;100.00
1616;BME280;801;47.982;7.810;2023-05-15T05:14:31;98309.53;;;12.73;100.00
1616;BME280;801;47.982;7.810;2023-05-15T05:16:58;98309.81;;;12.71;100.00
1616;BME280;801;47.982;7.810;2023-05-15T05:19:24;98307.91;;;12.72;100.00
1616;BME280;801;47.982;7.810;2023-05-15T05:21:53;98304.41;;;12.71;100.00
1616;BME280;801;47.982;7.810;2023-05-15T05:24:22;98311.41;;;12.72;100.00
1616;BME280;801;47.982;7.810;2023-05-15T05:26:49;98301.63;;;12.81;100.00
1616;BME280;801;47.982;7.810;2023-05-15T05:29:15;98302.13;;;12.88;100.00
1616;BME280;801;47.982;7.810;2023-05-15T05:31:42;98306.88;;;12.97;100.00
1616;BME280;801;47.982;7.810;2023-05-15T05:34:08;98305.03;;;12.92;100.00
1616;BME280;801;47.982;7.810;2023-05-15T05:36:35;98310.97;;;12.94;100.00
1616;BME280;801;47.982;7.810;2023-05-15T05:39:03;98314.28;;;12.86;100.00
1616;BME280;801;47.982;7.810;2023-05-15T05:41:30;98317.84;;;12.76;100.00
1616;BME280;801;47.982;7.810;2023-05-15T05:43:56;98314.31;;;12.81;100.00
1616;BME280;801;47.982;7.810;2023-05-15T05:46:23;98315.22;;;13.00;100.00
1616;BME280;801;47.982;7.810;2023-05-15T05:48:50;98316.81;;;13.06;100.00
1616;BME280;801;47.982;7.810;2023-05-15T05:51:17;98316.22;;;13.09;100.00
1616;BME280;801;47.982;7.810;2023-05-15T05:53:43;98308.00;;;12.96;100.00
1616;BME280;801;47.982;7.810;2023-05-15T05:56:11;98308.72;;;13.06;100.00
1616;BME280;801;47.982;7.810;2023-05-15T05:58:38;98308.13;;;13.09;100.00
1616;BME280;801;47.982;7.810;2023-05-15T06:01:04;98301.28;;;13.22;100.00
1616;BME280;801;47.982;7.810;2023-05-15T06:03:31;98291.56;;;13.21;100.00
1616;BME280;801;47.982;7.810;2023-05-15T06:05:58;98295.81;;;13.27;100.00
1616;BME280;801;47.982;7.810;2023-05-15T06:08:25;98296.28;;;13.40;100.00
1616;BME280;801;47.982;7.810;2023-05-15T06:10:51;98293.88;;;13.38;100.00
1616;BME280;801;47.982;7.810;2023-05-15T06:13:19;98289.00;;;13.40;100.00
1616;BME280;801;47.982;7.810;2023-05-15T06:15:46;98300.75;;;13.49;100.00
1616;BME280;801;47.982;7.810;2023-05-15T06:18:13;98307.03;;;13.45;100.00
1616;BME280;801;47.982;7.810;2023-05-15T06:20:39;98307.94;;;13.35;100.00
1616;BME280;801;47.982;7.810;2023-05-15T06:23:07;98317.69;;;13.31;100.00
1616;BME280;801;47.982;7.810;2023-05-15T06:25:33;98325.56;;;13.22;100.00
1616;BME280;801;47.982;7.810;2023-05-15T06:28:00;98322.50;;;13.34;100.00
1616;BME280;801;47.982;7.810;2023-05-15T06:30:28;98338.53;;;13.20;100.00
1616;BME280;801;47.982;7.810;2023-05-15T06:32:54;98337.75;;;13.20;100.00
1616;BME280;801;47.982;7.810;2023-05-15T06:35:21;98337.16;;;13.23;100.00
1616;BME280;801;47.982;7.810;2023-05-15T06:37:48;98343.34;;;13.23;100.00
1616;BME280;801;47.982;7.810;2023-05-15T06:40:16;98344.09;;;13.34;100.00
1616;BME280;801;47.982;7.810;2023-05-15T06:42:42;98341.19;;;13.55;100.00
1616;BME280;801;47.982;7.810;2023-05-15T06:45:09;98338.94;;;13.67;100.00
1616;BME280;801;47.982;7.810;2023-05-15T06:47:37;98341.28;;;13.74;100.00
1616;BME280;801;47.982;7.810;2023-05-15T06:50:04;98346.28;;;13.85;100.00
1616;BME280;801;47.982;7.810;2023-05-15T06:52:31;98349.03;;;13.80;100.00
1616;BME280;801;47.982;7.810;2023-05-15T06:54:58;98357.34;;;13.84;100.00
1616;BME280;801;47.982;7.810;2023-05-15T06:57:24;98357.44;;;14.03;100.00
1616;BME280;801;47.982;7.810;2023-05-15T06:59:51;98354.09;;;14.11;100.00
1616;BME280;801;47.982;7.810;2023-05-15T07:02:17;98361.09;;;14.12;100.00
1616;BME280;801;47.982;7.810;2023-05-15T07:04:45;98362.13;;;14.16;100.00
1616;BME280;801;47.982;7.810;2023-05-15T07:07:12;98366.31;;;14.27;100.00
1616;BME280;801;47.982;7.810;2023-05-15T07:09:38;98360.75;;;14.38;100.00
1616;BME280;801;47.982;7.810;2023-05-15T07:12:05;98357.50;;;14.41;100.00
1616;BME280;801;47.982;7.810;2023-05-15T07:14:32;98357.69;;;14.25;100.00
1616;BME280;801;47.982;7.810;2023-05-15T07:16:59;98354.63;;;14.51;100.00
1616;BME280;801;47.982;7.810;2023-05-15T07:19:25;98360.19;;;14.41;100.00
1616;BME280;801;47.982;7.810;2023-05-15T07:21:53;98358.72;;;14.48;100.00
1616;BME280;801;47.982;7.810;2023-05-15T07:24:20;98359.34;;;14.64;100.00
1616;BME280;801;47.982;7.810;2023-05-15T07:26:46;98362.38;;;14.39;100.00
1616;BME280;801;47.982;7.810;2023-05-15T07:29:13;98356.59;;;14.69;100.00
1616;BME280;801;47.982;7.810;2023-05-15T07:31:39;98351.19;;;14.69;100.00
1616;BME280;801;47.982;7.810;2023-05-15T07:34:09;98356.41;;;14.80;100.00
1616;BME280;801;47.982;7.810;2023-05-15T07:36:36;98344.34;;;14.34;100.00
1616;BME280;801;47.982;7.810;2023-05-15T07:39:04;98347.41;;;14.27;100.00
1616;BME280;801;47.982;7.810;2023-05-15T07:41:30;98347.31;;;14.32;100.00
1616;BME280;801;47.982;7.810;2023-05-15T07:43:57;98350.28;;;14.12;100.00
1616;BME280;801;47.982;7.810;2023-05-15T07:46:24;98341.66;;;14.10;100.00
1616;BME280;801;47.982;7.810;2023-05-15T07:48:51;98338.34;;;14.37;100.00
1616;BME280;801;47.982;7.810;2023-05-15T07:51:17;98345.13;;;14.35;100.00
1616;BME280;801;47.982;7.810;2023-05-15T07:53:44;98340.75;;;14.39;100.00
1616;BME280;801;47.982;7.810;2023-05-15T07:56:11;98338.69;;;14.55;100.00
1616;BME280;801;47.982;7.810;2023-05-15T07:58:38;98330.78;;;14.15;100.00
1616;BME280;801;47.982;7.810;2023-05-15T08:01:05;98334.00;;;14.17;100.00
1616;BME280;801;47.982;7.810;2023-05-15T08:03:31;98329.50;;;14.31;100.00
1616;BME280;801;47.982;7.810;2023-05-15T08:05:58;98330.03;;;14.52;100.00
1616;BME280;801;47.982;7.810;2023-05-15T08:08:25;98330.78;;;14.77;100.00
1616;BME280;801;47.982;7.810;2023-05-15T08:10:51;98336.78;;;14.74;100.00
1616;BME280;801;47.982;7.810;2023-05-15T08:13:19;98336.03;;;14.68;100.00
1616;BME280;801;47.982;7.810;2023-05-15T08:15:46;98331.88;;;14.57;100.00
1616;BME280;801;47.982;7.810;2023-05-15T08:18:12;98337.50;;;14.80;100.00
1616;BME280;801;47.982;7.810;2023-05-15T08:20:39;98335.66;;;14.94;100.00
1616;BME280;801;47.982;7.810;2023-05-15T08:23:05;98336.22;;;14.91;100.00
1616;BME280;801;47.982;7.810;2023-05-15T08:25:32;98338.00;;;15.01;100.00
1616;BME280;801;47.982;7.810;2023-05-15T08:28:00;98334.81;;;15.12;100.00
1616;BME280;801;47.982;7.810;2023-05-15T08:30:28;98331.78;;;14.43;100.00
1616;BME280;801;47.982;7.810;2023-05-15T08:32:54;98334.34;;;14.72;100.00
1616;BME280;801;47.982;7.810;2023-05-15T08:35:21;98330.50;;;15.11;100.00
1616;BME280;801;47.982;7.810;2023-05-15T08:37:47;98331.75;;;15.00;100.00
1616;BME280;801;47.982;7.810;2023-05-15T08:40:14;98326.84;;;15.02;100.00
1616;BME280;801;47.982;7.810;2023-05-15T08:42:42;98333.47;;;14.77;100.00
1616;BME280;801;47.982;7.810;2023-05-15T08:45:11;98334.13;;;14.69;100.00
1616;BME280;801;47.982;7.810;2023-05-15T08:47:40;98334.78;;;14.80;100.00
1616;BME280;801;47.982;7.810;2023-05-15T08:50:09;98329.59;;;14.83;100.00
1616;BME280;801;47.982;7.810;2023-05-15T08:52:37;98335.22;;;14.87;100.00
1616;BME280;801;47.982;7.810;2023-05-15T08:55:06;98322.38;;;14.60;100.00
1616;BME280;801;47.982;7.810;2023-05-15T08:57:33;98327.78;;;14.79;100.00
1616;BME280;801;47.982;7.810;2023-05-15T09:00:01;98324.63;;;14.90;100.00
1616;BME280;801;47.982;7.810;2023-05-15T09:02:29;98326.72;;;15.26;100.00
1616;BME280;801;47.982;7.810;2023-05-15T09:04:57;98328.28;;;15.13;100.00
1616;BME280;801;47.982;7.810;2023-05-15T09:07:26;98326.53;;;15.23;100.00
1616;BME280;801;47.982;7.810;2023-05-15T09:10:08;98323.44;;;15.29;100.00
1616;BME280;801;47.982;7.810;2023-05-15T09:12:43;98315.97;;;15.54;100.00
1616;BME280;801;47.982;7.810;2023-05-15T09:15:12;98319.66;;;15.58;100.00
1616;BME280;801;47.982;7.810;2023-05-15T09:17:44;98324.25;;;15.30;100.00
1616;BME280;801;47.982;7.810;2023-05-15T09:20:25;98332.09;;;15.45;100.00
1616;BME280;801;47.982;7.810;2023-05-15T09:22:56;98323.91;;;15.31;100.00
1616;BME280;801;47.982;7.810;2023-05-15T09:25:45;98321.94;;;15.37;100.00
1616;BME280;801;47.982;7.810;2023-05-15T09:28:25;98319.06;;;15.47;100.00
1616;BME280;801;47.982;7.810;2023-05-15T09:31:04;98313.03;;;15.50;100.00
1616;BME280;801;47.982;7.810;2023-05-15T09:33:37;98315.75;;;15.50;100.00
1616;BME280;801;47.982;7.810;2023-05-15T09:36:10;98313.34;;;15.63;100.00
1616;BME280;801;47.982;7.810;2023-05-15T09:38:40;98312.81;;;15.33;100.00
1616;BME280;801;47.982;7.810;2023-05-15T09:41:11;98311.34;;;15.54;100.00
1616;BME280;801;47.982;7.810;2023-05-15T09:43:41;98312.84;;;15.61;100.00
1616;BME280;801;47.982;7.810;2023-05-15T09:46:08;98307.06;;;15.81;100.00
1616;BME280;801;47.982;7.810;2023-05-15T09:48:37;98309.38;;;16.02;100.00
1616;BME280;801;47.982;7.810;2023-05-15T09:51:14;98304.84;;;15.97;100.00
1616;BME280;801;47.982;7.810;2023-05-15T09:53:47;98310.28;;;15.83;100.00
1616;BME280;801;47.982;7.810;2023-05-15T09:56:19;98310.78;;;15.85;100.00
1616;BME280;801;47.982;7.810;2023-05-15T09:58:59;98308.56;;;15.87;100.00
1616;BME280;801;47.982;7.810;2023-05-15T10:01:27;98311.09;;;15.84;100.00
1616;BME280;801;47.982;7.810;2023-05-15T10:04:00;98309.84;;;15.76;100.00
1616;BME280;801;47.982;7.810;2023-05-15T10:06:45;98307.16;;;15.76;100.00
1616;BME280;801;47.982;7.810;2023-05-15T10:09:21;98297.31;;;15.94;100.00
1616;BME280;801;47.982;7.810;2023-05-15T10:12:00;98295.16;;;16.32;100.00
1616;BME280;801;47.982;7.810;2023-05-15T10:14:30;98286.22;;;16.91;100.00
1616;BME280;801;47.982;7.810;2023-05-15T10:17:04;98272.53;;;16.96;100.00
1616;BME280;801;47.982;7.810;2023-05-15T10:19:35;98284.38;;;17.31;100.00
1616;BME280;801;47.982;7.810;2023-05-15T10:22:04;98276.91;;;17.37;100.00
1616;BME280;801;47.982;7.810;2023-05-15T10:24:32;98266.00;;;17.68;100.00
1616;BME280;801;47.982;7.810;2023-05-15T10:27:03;98266.09;;;17.86;100.00
1616;BME280;801;47.982;7.810;2023-05-15T10:29:40;98264.19;;;17.86;100.00
1616;BME280;801;47.982;7.810;2023-05-15T10:32:11;98257.78;;;17.99;100.00
1616;BME280;801;47.982;7.810;2023-05-15T10:34:42;98262.63;;;18.46;100.00
1616;BME280;801;47.982;7.810;2023-05-15T10:37:11;98259.44;;;18.44;100.00
1616;BME280;801;47.982;7.810;2023-05-15T10:39:43;98267.28;;;18.28;90.12
1616;BME280;801;47.982;7.810;2023-05-15T10:42:11;98263.28;;;18.69;88.61
1616;BME280;801;47.982;7.810;2023-05-15T10:44:40;98258.34;;;18.80;97.54
1616;BME280;801;47.982;7.810;2023-05-15T10:47:25;98252.72;;;18.33;98.29
1616;BME280;801;47.982;7.810;2023-05-15T10:49:53;98256.22;;;17.58;95.72
1616;BME280;801;47.982;7.810;2023-05-15T10:52:24;98266.19;;;18.38;97.83
1616;BME280;801;47.982;7.810;2023-05-15T10:54:51;98262.50;;;17.76;95.08
1616;BME280;801;47.982;7.810;2023-05-15T10:57:20;98256.38;;;18.28;96.12
1616;BME280;801;47.982;7.810;2023-05-15T10:59:49;98256.41;;;18.11;95.65
1616;BME280;801;47.982;7.810;2023-05-15T11:02:20;98248.69;;;18.13;95.93
1616;BME280;801;47.982;7.810;2023-05-15T11:04:52;98242.78;;;18.54;98.53
1616;BME280;801;47.982;7.810;2023-05-15T11:07:19;98246.66;;;18.27;100.00
1616;BME280;801;47.982;7.810;2023-05-15T11:09:49;98231.72;;;19.03;98.76
1616;BME280;801;47.982;7.810;2023-05-15T11:12:16;98238.63;;;18.31;97.69
1616;BME280;801;47.982;7.810;2023-05-15T11:15:16;98225.25;;;19.16;98.31
1616;BME280;801;47.982;7.810;2023-05-15T11:17:31;98222.75;;;20.00;91.46
1616;BME280;801;47.982;7.810;2023-05-15T11:19:58;98220.56;;;20.78;87.87
1616;BME280;801;47.982;7.810;2023-05-15T11:22:30;98217.00;;;20.02;91.18
1616;BME280;801;47.982;7.810;2023-05-15T11:24:59;98219.34;;;19.82;93.08
1616;BME280;801;47.982;7.810;2023-05-15T11:27:29;98215.25;;;20.18;91.81
1616;BME280;801;47.982;7.810;2023-05-15T11:30:12;98208.59;;;20.70;87.89
1616;BME280;801;47.982;7.810;2023-05-15T11:32:49;98206.75;;;19.99;92.80
1616;BME280;801;47.982;7.810;2023-05-15T11:35:22;98204.84;;;19.69;94.16
1616;BME280;801;47.982;7.810;2023-05-15T11:37:50;98201.50;;;20.90;90.50
1616;BME280;801;47.982;7.810;2023-05-15T11:40:21;98208.66;;;20.40;89.67
1616;BME280;801;47.982;7.810;2023-05-15T11:42:59;98201.06;;;20.67;90.35
1616;BME280;801;47.982;7.810;2023-05-15T11:45:27;98203.50;;;20.26;87.74
1616;BME280;801;47.982;7.810;2023-05-15T11:47:54;98202.19;;;19.82;90.21
1616;BME280;801;47.982;7.810;2023-05-15T11:50:22;98202.16;;;19.61;92.17
1616;BME280;801;47.982;7.810;2023-05-15T11:52:48;98199.47;;;19.52;92.47
1616;BME280;801;47.982;7.810;2023-05-15T11:55:17;98198.59;;;19.31;92.74
1616;BME280;801;47.982;7.810;2023-05-15T11:57:46;98199.19;;;19.45;94.17
1616;BME280;801;47.982;7.810;2023-05-15T12:00:13;98196.34;;;19.33;91.05
1616;BME280;801;47.982;7.810;2023-05-15T12:02:40;98195.44;;;19.58;89.60
1616;BME280;801;47.982;7.810;2023-05-15T12:05:07;98189.28;;;20.87;87.38
1616;BME280;801;47.982;7.810;2023-05-15T12:07:36;98194.59;;;21.91;81.23
1616;BME280;801;47.982;7.810;2023-05-15T12:10:03;98193.56;;;21.83;78.23
1616;BME280;801;47.982;7.810;2023-05-15T12:12:29;98190.19;;;20.79;79.97
1616;BME280;801;47.982;7.810;2023-05-15T12:14:58;98190.81;;;20.09;84.13
1616;BME280;801;47.982;7.810;2023-05-15T12:17:25;98194.91;;;20.16;85.44
1616;BME280;801;47.982;7.810;2023-05-15T12:19:52;98195.56;;;20.13;87.43
1616;BME280;801;47.982;7.810;2023-05-15T12:22:21;98182.78;;;19.54;90.96
1616;BME280;801;47.982;7.810;2023-05-15T12:24:47;98190.19;;;19.83;88.31
1616;BME280;801;47.982;7.810;2023-05-15T12:27:14;98190.75;;;20.51;85.99
1616;BME280;801;47.982;7.810;2023-05-15T12:29:41;98188.78;;;20.61;84.74
1616;BME280;801;47.982;7.810;2023-05-15T12:32:09;98182.16;;;21.07;83.81
1616;BME280;801;47.982;7.810;2023-05-15T12:34:36;98180.94;;;21.54;80.88
1616;BME280;801;47.982;7.810;2023-05-15T12:37:04;98178.88;;;21.26;81.10
1616;BME280;801;47.982;7.810;2023-05-15T12:39:31;98177.31;;;20.67;76.55
1616;BME280;801;47.982;7.810;2023-05-15T12:41:57;98180.03;;;20.67;78.51
1616;BME280;801;47.982;7.810;2023-05-15T12:44:24;98179.63;;;20.23;82.97
1616;BME280;801;47.982;7.810;2023-05-15T12:46:53;98179.13;;;20.00;89.03
1616;BME280;801;47.982;7.810;2023-05-15T12:49:21;98174.09;;;19.60;90.78
1616;BME280;801;47.982;7.810;2023-05-15T12:51:48;98170.16;;;19.79;90.50
1616;BME280;801;47.982;7.810;2023-05-15T12:54:18;98171.81;;;19.62;89.66
1616;BME280;801;47.982;7.810;2023-05-15T12:56:46;98169.28;;;19.57;89.14
1616;BME280;801;47.982;7.810;2023-05-15T12:59:12;98174.56;;;19.92;86.93
1616;BME280;801;47.982;7.810;2023-05-15T13:01:39;98182.78;;;20.04;81.30
1616;BME280;801;47.982;7.810;2023-05-15T13:04:06;98175.81;;;20.37;80.00
1616;BME280;801;47.982;7.810;2023-05-15T13:06:37;98184.28;;;20.23;77.81
1616;BME280;801;47.982;7.810;2023-05-15T13:09:03;98179.28;;;19.83;82.87
1616;BME280;801;47.982;7.810;2023-05-15T13:11:30;98173.16;;;19.56;85.43
1616;BME280;801;47.982;7.810;2023-05-15T13:13:57;98169.84;;;19.42;86.19
1616;BME280;801;47.982;7.810;2023-05-15T13:16:25;98177.94;;;19.59;86.54
1616;BME280;801;47.982;7.810;2023-05-15T13:18:54;98180.47;;;19.94;86.51
1616;BME280;801;47.982;7.810;2023-05-15T13:21:21;98190.16;;;19.53;89.68
1616;BME280;801;47.982;7.810;2023-05-15T13:23:49;98176.25;;;19.76;95.02
1616;BME280;801;47.982;7.810;2023-05-15T13:26:16;98182.31;;;20.02;94.39
1616;BME280;801;47.982;7.810;2023-05-15T13:28:43;98181.59;;;20.35;85.65
1616;BME280;801;47.982;7.810;2023-05-15T13:31:09;98181.50;;;20.65;75.20